CheckWX is a tool to help pilots better visualize weather data.  It is not intended as a substitute for an official pre-flight weather briefing.

06:58:05 UTC

KPSF TAF
Pittsfield Municipal Airport
Pittsfield, Massachusetts, USA
KPSF 190539Z 1906/2006 00000KT P6SM OVC012 TEMPO 1907/1909 OVC009 FM190900 00000KT P6SM OVC009 TEMPO 1909/1912 OVC011 FM191300 VRB02KT P6SM SCT012 OVC020 FM191700 18005KT P6SM VCSH SCT025 OVC040 PROB30 1921/2002 3SM TSRA BR OVC025CB FM200200 VRB02KT P6SM VCSH SCT015 BKN025

Jun-19@
06:00 UTC

Jun-19 @ 06:00 UTC

Jun-19@
09:00 UTC

Jun-19 @ 09:00 UTC

KPSF 190539Z 1906/2006 00000KT P6SM OVC012
Cloud Levels
  • Overcast at 1,200' AGL

Jun-19@
07:00 UTC

Jun-19 @ 07:00 UTC

Jun-19@
09:00 UTC

Jun-19 @ 09:00 UTC

TEMPO 1907/1909 OVC009

Temporary

Temporary Changes expected for less than half the time period

Cloud Levels
  • Overcast at 900' AGL

Jun-19@
09:00 UTC

Jun-19 @ 09:00 UTC

Jun-19@
12:00 UTC

Jun-19 @ 12:00 UTC

TEMPO 1909/1912 OVC011

Temporary

Temporary Changes expected for less than half the time period

Cloud Levels
  • Overcast at 1,100' AGL

Jun-19@
09:00 UTC

Jun-19 @ 09:00 UTC

Jun-19@
13:00 UTC

Jun-19 @ 13:00 UTC

FM190900 00000KT P6SM OVC009

From

From Standard forecast or significant change

Cloud Levels
  • Overcast at 900' AGL

Jun-19@
13:00 UTC

Jun-19 @ 13:00 UTC

Jun-19@
17:00 UTC

Jun-19 @ 17:00 UTC

FM191300 VRB02KT P6SM SCT012 OVC020

From

From Standard forecast or significant change

Wind
  • Variable at 2 KTS
Cloud Levels
  • Scattered at 1,200' AGL
  • Overcast at 2,000' AGL

Jun-19@
17:00 UTC

Jun-19 @ 17:00 UTC

Jun-20@
02:00 UTC

Jun-20 @ 02:00 UTC

FM191700 18005KT P6SM VCSH SCT025 OVC040

From

From Standard forecast or significant change

Wind
  • 180° at 5 KTS
Cloud Levels
  • Scattered at 2,500' AGL
  • Overcast at 4,000' AGL

Jun-19@
21:00 UTC

Jun-19 @ 21:00 UTC

Jun-20@
02:00 UTC

Jun-20 @ 02:00 UTC

PROB30 1921/2002 3SM TSRA BR OVC025CB

Probable - 30% Likelihood

Probable - 30% Likelihood during this time.

Conditions
Thunderstorm, Rain, Mist
Cloud Levels
  • Overcast at 2,500' AGL

Jun-20@
02:00 UTC

Jun-20 @ 02:00 UTC

Jun-20@
06:00 UTC

Jun-20 @ 06:00 UTC

FM200200 VRB02KT P6SM VCSH SCT015 BKN025

From

From Standard forecast or significant change

Wind
  • Variable at 2 KTS
Cloud Levels
  • Scattered at 1,500' AGL
  • Broken at 2,500' AGL